Choska, Oklahoma
Current Conditions -  °F | °C
As of 1:53 AM on Saturday 20 Dec 2014 (Local Time) from KRVS Reporting Station
Overcast Overcast  
Wind Chill: 39°   Ceiling: 3300
Heat Index: 39°   Visibility: 10mi
Dew Point: 36°   Wind: 0mph
Humidity: 89%   Direction: NA
Pressure: 30.23"   Gusts: NA
Location:  35.977°N, 95.6229°W
Report Text: KRVS 200753Z AUTO 00000KT 10SM OVC033 04/02 A3023 RMK AO2 SLP242 T00390022
Loading
Personal Weather Stations






























Interactive Weather Map New forecast layout! Learn more

10-Day Weather Forecast

Advertisements
Track Severe Weather on mobile